TimeMST,TemperatureF,Dew PointF,Humidity,Sea Level PressureIn,VisibilityMPH,Wind Direction,Wind SpeedMPH,Gust SpeedMPH,PrecipitationIn,Events,Conditions,WindDirDegrees,DateUTC
12:53 AM,19.0,12.0,74,30.24,10.0,ENE,9.2,-,N/A,,Clear,70,2014-01-20 07:53:00
1:53 AM,19.0,12.0,74,30.23,10.0,East,8.1,-,N/A,,Clear,80,2014-01-20 08:53:00
2:53 AM,17.1,10.9,77,30.24,10.0,ENE,9.2,-,N/A,,Clear,70,2014-01-20 09:53:00
3:53 AM,18.0,12.0,78,30.25,10.0,ENE,9.2,-,N/A,,Clear,70,2014-01-20 10:53:00
4:53 AM,17.1,10.9,77,30.27,10.0,ENE,8.1,-,N/A,,Clear,70,2014-01-20 11:53:00
5:53 AM,16.0,10.9,81,30.32,10.0,ENE,8.1,-,N/A,,Clear,70,2014-01-20 12:53:00
6:53 AM,16.0,10.0,77,30.37,10.0,ENE,8.1,-,N/A,,Clear,70,2014-01-20 13:53:00
7:53 AM,18.0,12.0,78,30.38,10.0,ENE,11.5,-,N/A,,Clear,70,2014-01-20 14:53:00
8:53 AM,28.9,16.0,58,30.36,10.0,ENE,4.6,-,N/A,,Clear,60,2014-01-20 15:53:00
9:53 AM,37.9,15.1,39,30.34,10.0,East,3.5,-,N/A,,Clear,80,2014-01-20 16:53:00
10:53 AM,46.0,17.1,31,30.32,8.0,West,6.9,-,N/A,,Clear,280,2014-01-20 17:53:00
11:53 AM,46.0,16.0,30,30.31,10.0,SSW,11.5,-,N/A,,Clear,210,2014-01-20 18:53:00
12:53 PM,52.0,17.1,25,30.25,10.0,West,11.5,-,N/A,,Clear,270,2014-01-20 19:53:00
1:53 PM,52.0,18.0,26,30.23,10.0,West,15.0,-,N/A,,Clear,280,2014-01-20 20:53:00
2:53 PM,51.1,17.1,26,30.26,10.0,WNW,12.7,23.0,N/A,,Clear,290,2014-01-20 21:53:00
3:53 PM,55.9,9.0,15,30.26,10.0,North,17.3,24.2,N/A,,Clear,350,2014-01-20 22:53:00
4:53 PM,52.0,10.0,19,30.30,10.0,North,11.5,-,N/A,,Clear,350,2014-01-20 23:53:00
5:53 PM,45.0,10.9,25,30.36,10.0,Calm,Calm,-,N/A,,Clear,0,2014-01-21 00:53:00
6:53 PM,41.0,12.9,32,30.41,10.0,Variable,6.9,-,N/A,,Clear,0,2014-01-21 01:53:00
7:53 PM,28.0,10.0,47,30.48,10.0,Calm,Calm,-,N/A,,Clear,0,2014-01-21 02:53:00
8:53 PM,23.0,9.0,55,30.47,10.0,Calm,Calm,-,N/A,,Clear,0,2014-01-21 03:53:00
9:53 PM,19.0,8.1,62,30.45,10.0,ENE,4.6,-,N/A,,Clear,70,2014-01-21 04:53:00
10:53 PM,17.1,7.0,65,30.45,10.0,East,8.1,-,N/A,,Clear,80,2014-01-21 05:53:00
11:53 PM,15.1,6.1,68,30.48,10.0,East,3.5,-,N/A,,Clear,90,2014-01-21 06:53:00